sensor_id;sensor_type;location;lat;lon;timestamp;P1;durP1;ratioP1;P2;durP2;ratioP2
57565;SDS011;63999;43.882;-0.310;2023-08-01T00:02:26;9.50;;;6.60;;
57565;SDS011;63999;43.882;-0.310;2023-08-01T00:04:52;9.18;;;6.25;;
57565;SDS011;63999;43.882;-0.310;2023-08-01T00:07:20;13.50;;;6.25;;
57565;SDS011;63999;43.882;-0.310;2023-08-01T00:09:45;8.27;;;5.50;;
57565;SDS011;63999;43.882;-0.310;2023-08-01T00:12:14;7.38;;;5.35;;
57565;SDS011;63999;43.882;-0.310;2023-08-01T00:14:40;8.30;;;5.03;;
57565;SDS011;63999;43.882;-0.310;2023-08-01T00:17:05;9.10;;;5.00;;
57565;SDS011;63999;43.882;-0.310;2023-08-01T00:19:31;7.60;;;4.63;;
57565;SDS011;63999;43.882;-0.310;2023-08-01T00:21:57;6.72;;;4.55;;
57565;SDS011;63999;43.882;-0.310;2023-08-01T00:24:23;8.13;;;4.90;;
57565;SDS011;63999;43.882;-0.310;2023-08-01T00:26:49;5.85;;;4.18;;
57565;SDS011;63999;43.882;-0.310;2023-08-01T00:29:14;6.95;;;4.53;;
57565;SDS011;63999;43.882;-0.310;2023-08-01T00:31:40;7.75;;;4.10;;
57565;SDS011;63999;43.882;-0.310;2023-08-01T00:34:09;7.18;;;4.18;;
57565;SDS011;63999;43.882;-0.310;2023-08-01T00:36:38;7.28;;;4.70;;
57565;SDS011;63999;43.882;-0.310;2023-08-01T00:39:03;6.47;;;4.40;;
57565;SDS011;63999;43.882;-0.310;2023-08-01T00:41:29;8.07;;;4.07;;
57565;SDS011;63999;43.882;-0.310;2023-08-01T00:43:55;6.45;;;4.10;;
57565;SDS011;63999;43.882;-0.310;2023-08-01T00:46:21;9.85;;;4.40;;
57565;SDS011;63999;43.882;-0.310;2023-08-01T00:48:47;5.70;;;4.00;;
57565;SDS011;63999;43.882;-0.310;2023-08-01T00:51:13;8.95;;;4.43;;
57565;SDS011;63999;43.882;-0.310;2023-08-01T00:53:41;7.43;;;4.47;;
57565;SDS011;63999;43.882;-0.310;2023-08-01T00:56:10;5.45;;;3.97;;
57565;SDS011;63999;43.882;-0.310;2023-08-01T00:58:39;7.80;;;4.47;;
57565;SDS011;63999;43.882;-0.310;2023-08-01T01:01:08;6.15;;;4.20;;
57565;SDS011;63999;43.882;-0.310;2023-08-01T01:03:34;5.55;;;3.88;;
57565;SDS011;63999;43.882;-0.310;2023-08-01T01:06:22;6.60;;;4.60;;
57565;SDS011;63999;43.882;-0.310;2023-08-01T01:08:55;7.32;;;4.80;;
57565;SDS011;63999;43.882;-0.310;2023-08-01T01:11:21;6.25;;;4.30;;
57565;SDS011;63999;43.882;-0.310;2023-08-01T01:13:47;7.25;;;4.57;;
57565;SDS011;63999;43.882;-0.310;2023-08-01T01:16:15;6.30;;;3.75;;
57565;SDS011;63999;43.882;-0.310;2023-08-01T01:18:43;7.68;;;4.43;;
57565;SDS011;63999;43.882;-0.310;2023-08-01T01:21:12;7.82;;;4.32;;
57565;SDS011;63999;43.882;-0.310;2023-08-01T01:23:40;6.97;;;4.30;;
57565;SDS011;63999;43.882;-0.310;2023-08-01T01:26:10;8.05;;;4.25;;
57565;SDS011;63999;43.882;-0.310;2023-08-01T01:28:40;9.35;;;4.22;;
57565;SDS011;63999;43.882;-0.310;2023-08-01T01:31:07;6.40;;;4.28;;
57565;SDS011;63999;43.882;-0.310;2023-08-01T01:33:33;7.38;;;4.13;;
57565;SDS011;63999;43.882;-0.310;2023-08-01T01:36:00;7.07;;;4.55;;
57565;SDS011;63999;43.882;-0.310;2023-08-01T01:38:32;7.25;;;4.35;;
57565;SDS011;63999;43.882;-0.310;2023-08-01T01:40:58;7.65;;;4.18;;
57565;SDS011;63999;43.882;-0.310;2023-08-01T01:43:23;6.07;;;3.97;;
57565;SDS011;63999;43.882;-0.310;2023-08-01T01:45:49;10.23;;;4.40;;
57565;SDS011;63999;43.882;-0.310;2023-08-01T01:48:15;6.13;;;3.90;;
57565;SDS011;63999;43.882;-0.310;2023-08-01T01:50:45;7.25;;;3.90;;
57565;SDS011;63999;43.882;-0.310;2023-08-01T01:53:14;8.75;;;4.57;;
57565;SDS011;63999;43.882;-0.310;2023-08-01T01:55:43;7.15;;;4.28;;
57565;SDS011;63999;43.882;-0.310;2023-08-01T01:58:09;6.40;;;4.07;;
57565;SDS011;63999;43.882;-0.310;2023-08-01T02:00:34;5.80;;;3.88;;
57565;SDS011;63999;43.882;-0.310;2023-08-01T02:03:00;47.08;;;5.38;;
57565;SDS011;63999;43.882;-0.310;2023-08-01T02:05:29;7.22;;;4.00;;
57565;SDS011;63999;43.882;-0.310;2023-08-01T02:07:55;9.10;;;3.97;;
57565;SDS011;63999;43.882;-0.310;2023-08-01T02:10:21;6.85;;;3.90;;
57565;SDS011;63999;43.882;-0.310;2023-08-01T02:12:47;7.47;;;4.35;;
57565;SDS011;63999;43.882;-0.310;2023-08-01T02:15:15;6.72;;;4.13;;
57565;SDS011;63999;43.882;-0.310;2023-08-01T02:17:41;8.35;;;3.85;;
57565;SDS011;63999;43.882;-0.310;2023-08-01T02:20:07;6.07;;;3.70;;
57565;SDS011;63999;43.882;-0.310;2023-08-01T02:22:33;6.95;;;3.80;;
57565;SDS011;63999;43.882;-0.310;2023-08-01T02:24:59;7.35;;;4.28;;
57565;SDS011;63999;43.882;-0.310;2023-08-01T02:27:24;8.68;;;3.78;;
57565;SDS011;63999;43.882;-0.310;2023-08-01T02:29:50;8.32;;;4.00;;
57565;SDS011;63999;43.882;-0.310;2023-08-01T02:32:18;6.50;;;3.80;;
57565;SDS011;63999;43.882;-0.310;2023-08-01T02:34:47;6.63;;;4.10;;
57565;SDS011;63999;43.882;-0.310;2023-08-01T02:37:13;7.55;;;4.10;;
57565;SDS011;63999;43.882;-0.310;2023-08-01T02:39:41;7.53;;;4.00;;
57565;SDS011;63999;43.882;-0.310;2023-08-01T02:42:12;8.52;;;4.30;;
57565;SDS011;63999;43.882;-0.310;2023-08-01T02:44:38;8.75;;;4.00;;
57565;SDS011;63999;43.882;-0.310;2023-08-01T02:47:04;7.30;;;3.90;;
57565;SDS011;63999;43.882;-0.310;2023-08-01T02:49:31;7.40;;;4.00;;
57565;SDS011;63999;43.882;-0.310;2023-08-01T02:51:57;9.88;;;3.92;;
57565;SDS011;63999;43.882;-0.310;2023-08-01T02:54:23;7.70;;;4.45;;
57565;SDS011;63999;43.882;-0.310;2023-08-01T02:56:49;8.52;;;4.03;;
57565;SDS011;63999;43.882;-0.310;2023-08-01T02:59:16;9.70;;;4.30;;
57565;SDS011;63999;43.882;-0.310;2023-08-01T03:01:43;7.90;;;4.45;;
57565;SDS011;63999;43.882;-0.310;2023-08-01T03:04:09;6.80;;;4.22;;
57565;SDS011;63999;43.882;-0.310;2023-08-01T03:06:37;6.60;;;3.78;;
57565;SDS011;63999;43.882;-0.310;2023-08-01T03:09:05;9.35;;;4.20;;
57565;SDS011;63999;43.882;-0.310;2023-08-01T03:11:33;9.80;;;4.57;;
57565;SDS011;63999;43.882;-0.310;2023-08-01T03:14:04;8.40;;;4.18;;
57565;SDS011;63999;43.882;-0.310;2023-08-01T03:16:33;7.97;;;4.50;;
57565;SDS011;63999;43.882;-0.310;2023-08-01T03:19:02;6.22;;;4.18;;
57565;SDS011;63999;43.882;-0.310;2023-08-01T03:21:33;5.78;;;3.88;;
57565;SDS011;63999;43.882;-0.310;2023-08-01T03:23:59;6.55;;;4.00;;
57565;SDS011;63999;43.882;-0.310;2023-08-01T03:26:34;7.40;;;3.90;;
57565;SDS011;63999;43.882;-0.310;2023-08-01T03:29:04;7.75;;;4.07;;
57565;SDS011;63999;43.882;-0.310;2023-08-01T03:31:30;8.43;;;4.03;;
57565;SDS011;63999;43.882;-0.310;2023-08-01T03:33:56;7.82;;;4.28;;
57565;SDS011;63999;43.882;-0.310;2023-08-01T03:36:28;5.78;;;3.88;;
57565;SDS011;63999;43.882;-0.310;2023-08-01T03:38:57;7.97;;;4.45;;
57565;SDS011;63999;43.882;-0.310;2023-08-01T03:41:28;10.63;;;4.28;;
57565;SDS011;63999;43.882;-0.310;2023-08-01T03:43:55;9.80;;;4.82;;
57565;SDS011;63999;43.882;-0.310;2023-08-01T03:46:21;8.52;;;4.43;;
57565;SDS011;63999;43.882;-0.310;2023-08-01T03:48:50;8.77;;;4.43;;
57565;SDS011;63999;43.882;-0.310;2023-08-01T03:51:15;8.65;;;4.30;;
57565;SDS011;63999;43.882;-0.310;2023-08-01T03:53:44;9.15;;;3.70;;
57565;SDS011;63999;43.882;-0.310;2023-08-01T03:56:19;7.97;;;4.05;;
57565;SDS011;63999;43.882;-0.310;2023-08-01T03:58:47;6.68;;;3.88;;
57565;SDS011;63999;43.882;-0.310;2023-08-01T04:01:16;6.88;;;4.03;;
57565;SDS011;63999;43.882;-0.310;2023-08-01T04:03:46;6.85;;;3.60;;
57565;SDS011;63999;43.882;-0.310;2023-08-01T04:06:12;7.10;;;3.83;;
57565;SDS011;63999;43.882;-0.310;2023-08-01T04:08:41;8.63;;;4.03;;
57565;SDS011;63999;43.882;-0.310;2023-08-01T04:11:07;7.82;;;4.18;;
57565;SDS011;63999;43.882;-0.310;2023-08-01T04:13:41;7.97;;;3.78;;
57565;SDS011;63999;43.882;-0.310;2023-08-01T04:16:07;7.30;;;3.80;;
57565;SDS011;63999;43.882;-0.310;2023-08-01T04:18:33;5.78;;;3.40;;
57565;SDS011;63999;43.882;-0.310;2023-08-01T04:20:59;6.32;;;3.70;;
57565;SDS011;63999;43.882;-0.310;2023-08-01T04:23:31;7.53;;;3.40;;
57565;SDS011;63999;43.882;-0.310;2023-08-01T04:26:03;5.93;;;3.70;;
57565;SDS011;63999;43.882;-0.310;2023-08-01T04:28:31;7.05;;;3.65;;
57565;SDS011;63999;43.882;-0.310;2023-08-01T04:31:05;9.10;;;3.90;;
57565;SDS011;63999;43.882;-0.310;2023-08-01T04:33:30;6.10;;;3.58;;
57565;SDS011;63999;43.882;-0.310;2023-08-01T04:35:59;7.28;;;3.70;;
57565;SDS011;63999;43.882;-0.310;2023-08-01T04:38:25;8.00;;;3.45;;
57565;SDS011;63999;43.882;-0.310;2023-08-01T04:40:51;7.35;;;3.42;;
57565;SDS011;63999;43.882;-0.310;2023-08-01T04:43:17;6.15;;;3.50;;
57565;SDS011;63999;43.882;-0.310;2023-08-01T04:45:46;6.38;;;3.25;;
57565;SDS011;63999;43.882;-0.310;2023-08-01T04:48:12;5.57;;;3.20;;
57565;SDS011;63999;43.882;-0.310;2023-08-01T04:50:37;5.13;;;3.22;;
57565;SDS011;63999;43.882;-0.310;2023-08-01T04:53:03;5.68;;;3.10;;
57565;SDS011;63999;43.882;-0.310;2023-08-01T04:55:32;5.65;;;2.92;;
57565;SDS011;63999;43.882;-0.310;2023-08-01T04:57:58;5.88;;;3.40;;
57565;SDS011;63999;43.882;-0.310;2023-08-01T05:00:24;4.25;;;3.08;;
57565;SDS011;63999;43.882;-0.310;2023-08-01T05:02:52;6.65;;;2.95;;
57565;SDS011;63999;43.882;-0.310;2023-08-01T05:05:18;6.25;;;3.08;;
57565;SDS011;63999;43.882;-0.310;2023-08-01T05:07:46;4.63;;;2.83;;
57565;SDS011;63999;43.882;-0.310;2023-08-01T05:10:15;5.75;;;3.15;;
57565;SDS011;63999;43.882;-0.310;2023-08-01T05:12:46;11.35;;;3.38;;
57565;SDS011;63999;43.882;-0.310;2023-08-01T05:15:12;4.40;;;2.88;;
57565;SDS011;63999;43.882;-0.310;2023-08-01T05:17:41;4.57;;;2.92;;
57565;SDS011;63999;43.882;-0.310;2023-08-01T05:20:07;5.05;;;2.97;;
57565;SDS011;63999;43.882;-0.310;2023-08-01T05:22:33;5.85;;;3.15;;
57565;SDS011;63999;43.882;-0.310;2023-08-01T05:25:00;4.03;;;2.97;;
57565;SDS011;63999;43.882;-0.310;2023-08-01T05:27:27;3.83;;;2.83;;
57565;SDS011;63999;43.882;-0.310;2023-08-01T05:29:52;5.57;;;2.90;;
57565;SDS011;63999;43.882;-0.310;2023-08-01T05:32:18;4.13;;;2.72;;
57565;SDS011;63999;43.882;-0.310;2023-08-01T05:34:49;5.95;;;3.03;;
57565;SDS011;63999;43.882;-0.310;2023-08-01T05:37:14;4.93;;;3.00;;
57565;SDS011;63999;43.882;-0.310;2023-08-01T05:39:43;5.60;;;2.67;;
57565;SDS011;63999;43.882;-0.310;2023-08-01T05:42:12;7.53;;;2.92;;
57565;SDS011;63999;43.882;-0.310;2023-08-01T05:44:38;5.50;;;2.83;;
57565;SDS011;63999;43.882;-0.310;2023-08-01T05:47:07;5.47;;;2.60;;
57565;SDS011;63999;43.882;-0.310;2023-08-01T05:49:33;5.00;;;2.75;;
57565;SDS011;63999;43.882;-0.310;2023-08-01T05:51:59;4.50;;;2.50;;
57565;SDS011;63999;43.882;-0.310;2023-08-01T05:54:27;4.05;;;2.60;;
57565;SDS011;63999;43.882;-0.310;2023-08-01T05:56:53;5.25;;;2.50;;
57565;SDS011;63999;43.882;-0.310;2023-08-01T05:59:19;5.60;;;2.80;;
57565;SDS011;63999;43.882;-0.310;2023-08-01T06:01:47;4.88;;;2.63;;
57565;SDS011;63999;43.882;-0.310;2023-08-01T06:04:13;5.75;;;2.38;;
57565;SDS011;63999;43.882;-0.310;2023-08-01T06:06:39;5.00;;;2.65;;
57565;SDS011;63999;43.882;-0.310;2023-08-01T06:09:09;5.45;;;2.90;;
57565;SDS011;63999;43.882;-0.310;2023-08-01T06:11:35;5.40;;;2.78;;
57565;SDS011;63999;43.882;-0.310;2023-08-01T06:14:00;5.80;;;2.65;;
57565;SDS011;63999;43.882;-0.310;2023-08-01T06:16:27;4.65;;;2.75;;
57565;SDS011;63999;43.882;-0.310;2023-08-01T06:18:53;4.45;;;2.90;;
57565;SDS011;63999;43.882;-0.310;2023-08-01T06:21:19;6.70;;;3.10;;
57565;SDS011;63999;43.882;-0.310;2023-08-01T06:23:48;5.05;;;2.60;;
57565;SDS011;63999;43.882;-0.310;2023-08-01T06:26:18;4.90;;;2.90;;
57565;SDS011;63999;43.882;-0.310;2023-08-01T06:28:44;6.40;;;2.67;;
57565;SDS011;63999;43.882;-0.310;2023-08-01T06:31:10;5.28;;;2.53;;
57565;SDS011;63999;43.882;-0.310;2023-08-01T06:33:38;6.90;;;3.05;;
57565;SDS011;63999;43.882;-0.310;2023-08-01T06:36:05;6.38;;;3.10;;
57565;SDS011;63999;43.882;-0.310;2023-08-01T06:38:30;5.32;;;2.63;;
57565;SDS011;63999;43.882;-0.310;2023-08-01T06:40:56;7.63;;;2.63;;
57565;SDS011;63999;43.882;-0.310;2023-08-01T06:43:22;4.47;;;2.90;;
57565;SDS011;63999;43.882;-0.310;2023-08-01T06:45:51;4.53;;;2.75;;
57565;SDS011;63999;43.882;-0.310;2023-08-01T06:48:16;5.10;;;3.05;;
57565;SDS011;63999;43.882;-0.310;2023-08-01T06:50:42;6.63;;;3.22;;
57565;SDS011;63999;43.882;-0.310;2023-08-01T06:53:08;6.65;;;2.67;;
57565;SDS011;63999;43.882;-0.310;2023-08-01T06:55:34;5.78;;;2.70;;
57565;SDS011;63999;43.882;-0.310;2023-08-01T06:58:06;6.28;;;2.88;;
57565;SDS011;63999;43.882;-0.310;2023-08-01T07:00:32;4.93;;;2.53;;
57565;SDS011;63999;43.882;-0.310;2023-08-01T07:03:01;6.03;;;2.83;;
57565;SDS011;63999;43.882;-0.310;2023-08-01T07:05:27;4.82;;;2.53;;
57565;SDS011;63999;43.882;-0.310;2023-08-01T07:07:55;6.95;;;3.35;;
57565;SDS011;63999;43.882;-0.310;2023-08-01T07:10:23;8.77;;;2.92;;
57565;SDS011;63999;43.882;-0.310;2023-08-01T07:12:49;5.78;;;3.05;;
57565;SDS011;63999;43.882;-0.310;2023-08-01T07:15:14;6.45;;;3.25;;
57565;SDS011;63999;43.882;-0.310;2023-08-01T07:17:40;5.22;;;2.97;;
57565;SDS011;63999;43.882;-0.310;2023-08-01T07:20:09;3.22;;;2.40;;
57565;SDS011;63999;43.882;-0.310;2023-08-01T07:22:38;5.05;;;3.20;;
57565;SDS011;63999;43.882;-0.310;2023-08-01T07:25:05;6.00;;;3.45;;
57565;SDS011;63999;43.882;-0.310;2023-08-01T07:27:33;6.55;;;2.85;;
57565;SDS011;63999;43.882;-0.310;2023-08-01T07:30:02;7.05;;;3.15;;
57565;SDS011;63999;43.882;-0.310;2023-08-01T07:32:29;5.40;;;3.08;;
57565;SDS011;63999;43.882;-0.310;2023-08-01T07:34:55;6.68;;;3.10;;
57565;SDS011;63999;43.882;-0.310;2023-08-01T07:37:21;4.97;;;3.00;;
57565;SDS011;63999;43.882;-0.310;2023-08-01T07:39:49;7.80;;;2.80;;
57565;SDS011;63999;43.882;-0.310;2023-08-01T07:42:15;4.45;;;2.65;;
57565;SDS011;63999;43.882;-0.310;2023-08-01T07:44:41;5.80;;;3.00;;
57565;SDS011;63999;43.882;-0.310;2023-08-01T07:47:10;5.97;;;2.65;;
57565;SDS011;63999;43.882;-0.310;2023-08-01T07:49:39;4.47;;;2.83;;
57565;SDS011;63999;43.882;-0.310;2023-08-01T07:52:07;5.88;;;2.88;;
57565;SDS011;63999;43.882;-0.310;2023-08-01T07:54:33;6.45;;;3.42;;
57565;SDS011;63999;43.882;-0.310;2023-08-01T07:56:59;8.52;;;3.20;;
57565;SDS011;63999;43.882;-0.310;2023-08-01T07:59:25;5.80;;;3.35;;
57565;SDS011;63999;43.882;-0.310;2023-08-01T08:01:51;5.53;;;3.13;;
57565;SDS011;63999;43.882;-0.310;2023-08-01T08:04:18;5.93;;;2.20;;
57565;SDS011;63999;43.882;-0.310;2023-08-01T08:06:48;6.10;;;3.13;;
57565;SDS011;63999;43.882;-0.310;2023-08-01T08:09:17;6.93;;;3.20;;
57565;SDS011;63999;43.882;-0.310;2023-08-01T08:11:43;6.50;;;3.33;;
57565;SDS011;63999;43.882;-0.310;2023-08-01T08:14:09;5.82;;;2.70;;
57565;SDS011;63999;43.882;-0.310;2023-08-01T08:16:36;7.25;;;3.00;;
57565;SDS011;63999;43.882;-0.310;2023-08-01T08:19:04;5.53;;;2.70;;
57565;SDS011;63999;43.882;-0.310;2023-08-01T08:21:32;4.30;;;3.05;;
57565;SDS011;63999;43.882;-0.310;2023-08-01T08:23:58;5.30;;;2.95;;
57565;SDS011;63999;43.882;-0.310;2023-08-01T08:26:25;6.63;;;2.83;;
57565;SDS011;63999;43.882;-0.310;2023-08-01T08:28:53;6.97;;;3.22;;
57565;SDS011;63999;43.882;-0.310;2023-08-01T08:31:19;5.20;;;2.97;;
57565;SDS011;63999;43.882;-0.310;2023-08-01T08:33:47;9.13;;;3.50;;
57565;SDS011;63999;43.882;-0.310;2023-08-01T08:36:15;6.15;;;3.22;;
57565;SDS011;63999;43.882;-0.310;2023-08-01T08:38:41;5.55;;;3.33;;
57565;SDS011;63999;43.882;-0.310;2023-08-01T08:41:23;5.88;;;3.38;;
57565;SDS011;63999;43.882;-0.310;2023-08-01T08:43:54;5.93;;;3.38;;
57565;SDS011;63999;43.882;-0.310;2023-08-01T08:46:30;8.82;;;3.50;;
57565;SDS011;63999;43.882;-0.310;2023-08-01T08:48:59;7.55;;;3.15;;
57565;SDS011;63999;43.882;-0.310;2023-08-01T08:51:26;5.68;;;3.28;;
57565;SDS011;63999;43.882;-0.310;2023-08-01T08:53:53;6.15;;;3.08;;
57565;SDS011;63999;43.882;-0.310;2023-08-01T08:56:21;10.02;;;3.00;;
57565;SDS011;63999;43.882;-0.310;2023-08-01T08:58:48;7.40;;;3.17;;
57565;SDS011;63999;43.882;-0.310;2023-08-01T09:01:17;8.43;;;3.13;;
57565;SDS011;63999;43.882;-0.310;2023-08-01T09:03:46;5.90;;;2.90;;
57565;SDS011;63999;43.882;-0.310;2023-08-01T09:06:16;4.45;;;2.85;;
57565;SDS011;63999;43.882;-0.310;2023-08-01T09:08:50;4.45;;;3.15;;
57565;SDS011;63999;43.882;-0.310;2023-08-01T09:11:17;6.72;;;3.22;;
57565;SDS011;63999;43.882;-0.310;2023-08-01T09:13:43;5.82;;;3.20;;
57565;SDS011;63999;43.882;-0.310;2023-08-01T09:16:11;4.68;;;2.55;;
57565;SDS011;63999;43.882;-0.310;2023-08-01T09:18:51;5.22;;;3.05;;
57565;SDS011;63999;43.882;-0.310;2023-08-01T09:21:18;6.20;;;2.88;;
57565;SDS011;63999;43.882;-0.310;2023-08-01T09:23:44;4.35;;;2.17;;
57565;SDS011;63999;43.882;-0.310;2023-08-01T09:26:14;3.90;;;2.17;;
57565;SDS011;63999;43.882;-0.310;2023-08-01T09:28:40;2.88;;;2.00;;
57565;SDS011;63999;43.882;-0.310;2023-08-01T09:31:06;2.40;;;1.60;;
57565;SDS011;63999;43.882;-0.310;2023-08-01T09:33:39;2.63;;;1.50;;
57565;SDS011;63999;43.882;-0.310;2023-08-01T09:36:07;2.30;;;1.20;;
57565;SDS011;63999;43.882;-0.310;2023-08-01T09:38:45;2.90;;;1.27;;
57565;SDS011;63999;43.882;-0.310;2023-08-01T09:41:17;3.65;;;1.52;;
57565;SDS011;63999;43.882;-0.310;2023-08-01T09:43:46;2.00;;;1.10;;
57565;SDS011;63999;43.882;-0.310;2023-08-01T09:46:14;4.07;;;1.10;;
57565;SDS011;63999;43.882;-0.310;2023-08-01T09:48:41;1.05;;;0.82;;
57565;SDS011;63999;43.882;-0.310;2023-08-01T09:51:17;2.00;;;0.93;;
57565;SDS011;63999;43.882;-0.310;2023-08-01T09:53:50;1.60;;;0.88;;
57565;SDS011;63999;43.882;-0.310;2023-08-01T09:56:22;1.70;;;0.90;;
57565;SDS011;63999;43.882;-0.310;2023-08-01T09:58:52;1.70;;;0.80;;
57565;SDS011;63999;43.882;-0.310;2023-08-01T10:04:36;0.50;;;0.50;;
57565;SDS011;63999;43.882;-0.310;2023-08-01T10:07:11;1.45;;;0.63;;
57565;SDS011;63999;43.882;-0.310;2023-08-01T10:09:38;0.60;;;0.50;;
57565;SDS011;63999;43.882;-0.310;2023-08-01T10:12:06;1.55;;;0.50;;
57565;SDS011;63999;43.882;-0.310;2023-08-01T10:14:33;1.13;;;0.70;;
57565;SDS011;63999;43.882;-0.310;2023-08-01T10:16:59;0.90;;;0.50;;
57565;SDS011;63999;43.882;-0.310;2023-08-01T10:19:26;0.80;;;0.50;;
57565;SDS011;63999;43.882;-0.310;2023-08-01T10:21:54;0.77;;;0.50;;
57565;SDS011;63999;43.882;-0.310;2023-08-01T10:24:20;6.47;;;0.60;;
57565;SDS011;63999;43.882;-0.310;2023-08-01T10:26:48;1.52;;;0.65;;
57565;SDS011;63999;43.882;-0.310;2023-08-01T10:29:14;0.93;;;0.60;;
57565;SDS011;63999;43.882;-0.310;2023-08-01T10:31:49;2.00;;;0.80;;
57565;SDS011;63999;43.882;-0.310;2023-08-01T10:34:16;1.48;;;0.70;;
57565;SDS011;63999;43.882;-0.310;2023-08-01T10:36:52;1.90;;;0.90;;
57565;SDS011;63999;43.882;-0.310;2023-08-01T10:39:22;2.17;;;0.77;;
57565;SDS011;63999;43.882;-0.310;2023-08-01T10:42:02;3.75;;;0.60;;
57565;SDS011;63999;43.882;-0.310;2023-08-01T10:44:30;2.00;;;0.90;;
57565;SDS011;63999;43.882;-0.310;2023-08-01T10:47:02;2.25;;;0.90;;
57565;SDS011;63999;43.882;-0.310;2023-08-01T10:49:36;2.05;;;1.25;;
57565;SDS011;63999;43.882;-0.310;2023-08-01T10:52:16;6.30;;;1.15;;
57565;SDS011;63999;43.882;-0.310;2023-08-01T10:55:04;1.48;;;1.10;;
57565;SDS011;63999;43.882;-0.310;2023-08-01T10:57:31;2.13;;;1.10;;
57565;SDS011;63999;43.882;-0.310;2023-08-01T11:00:00;1.85;;;0.90;;
57565;SDS011;63999;43.882;-0.310;2023-08-01T11:02:26;2.03;;;0.80;;
57565;SDS011;63999;43.882;-0.310;2023-08-01T11:04:56;2.15;;;1.15;;
57565;SDS011;63999;43.882;-0.310;2023-08-01T11:07:27;4.43;;;1.27;;
57565;SDS011;63999;43.882;-0.310;2023-08-01T11:10:03;2.20;;;1.10;;
57565;SDS011;63999;43.882;-0.310;2023-08-01T11:12:35;2.63;;;1.20;;
57565;SDS011;63999;43.882;-0.310;2023-08-01T11:15:06;2.83;;;1.00;;
57565;SDS011;63999;43.882;-0.310;2023-08-01T11:17:33;2.38;;;1.20;;
57565;SDS011;63999;43.882;-0.310;2023-08-01T11:20:01;2.17;;;1.08;;
57565;SDS011;63999;43.882;-0.310;2023-08-01T11:22:29;1.75;;;0.90;;
57565;SDS011;63999;43.882;-0.310;2023-08-01T11:24:55;3.22;;;1.45;;
57565;SDS011;63999;43.882;-0.310;2023-08-01T11:27:20;5.28;;;1.48;;
57565;SDS011;63999;43.882;-0.310;2023-08-01T11:29:46;2.00;;;1.25;;
57565;SDS011;63999;43.882;-0.310;2023-08-01T11:32:12;3.40;;;1.42;;
57565;SDS011;63999;43.882;-0.310;2023-08-01T11:34:41;0.90;;;0.68;;
57565;SDS011;63999;43.882;-0.310;2023-08-01T11:37:10;2.13;;;1.10;;
57565;SDS011;63999;43.882;-0.310;2023-08-01T11:39:36;2.25;;;0.70;;
57565;SDS011;63999;43.882;-0.310;2023-08-01T11:42:02;1.73;;;0.90;;
57565;SDS011;63999;43.882;-0.310;2023-08-01T11:44:28;3.75;;;1.20;;
57565;SDS011;63999;43.882;-0.310;2023-08-01T11:46:54;2.63;;;1.05;;
57565;SDS011;63999;43.882;-0.310;2023-08-01T11:49:21;2.88;;;1.08;;
57565;SDS011;63999;43.882;-0.310;2023-08-01T11:51:47;2.03;;;1.10;;
57565;SDS011;63999;43.882;-0.310;2023-08-01T11:54:13;2.72;;;1.20;;
57565;SDS011;63999;43.882;-0.310;2023-08-01T11:56:40;3.42;;;1.20;;
57565;SDS011;63999;43.882;-0.310;2023-08-01T11:59:08;3.53;;;1.20;;
57565;SDS011;63999;43.882;-0.310;2023-08-01T12:01:41;1.63;;;0.90;;
57565;SDS011;63999;43.882;-0.310;2023-08-01T12:04:11;1.83;;;0.90;;
57565;SDS011;63999;43.882;-0.310;2023-08-01T12:06:37;2.75;;;1.27;;
57565;SDS011;63999;43.882;-0.310;2023-08-01T12:09:11;1.92;;;1.08;;
57565;SDS011;63999;43.882;-0.310;2023-08-01T12:11:38;2.30;;;1.38;;
57565;SDS011;63999;43.882;-0.310;2023-08-01T12:14:07;2.80;;;1.27;;
57565;SDS011;63999;43.882;-0.310;2023-08-01T12:16:45;2.65;;;1.63;;
57565;SDS011;63999;43.882;-0.310;2023-08-01T12:19:18;2.83;;;1.38;;
57565;SDS011;63999;43.882;-0.310;2023-08-01T12:21:45;2.15;;;1.15;;
57565;SDS011;63999;43.882;-0.310;2023-08-01T12:24:11;4.70;;;1.90;;
57565;SDS011;63999;43.882;-0.310;2023-08-01T12:26:37;4.05;;;1.80;;
57565;SDS011;63999;43.882;-0.310;2023-08-01T12:29:03;4.13;;;1.80;;
57565;SDS011;63999;43.882;-0.310;2023-08-01T12:31:28;3.90;;;1.95;;
57565;SDS011;63999;43.882;-0.310;2023-08-01T12:33:54;2.80;;;1.27;;
57565;SDS011;63999;43.882;-0.310;2023-08-01T12:36:20;4.65;;;1.38;;
57565;SDS011;63999;43.882;-0.310;2023-08-01T12:38:46;3.47;;;1.80;;
57565;SDS011;63999;43.882;-0.310;2023-08-01T12:41:12;6.20;;;1.83;;
57565;SDS011;63999;43.882;-0.310;2023-08-01T12:43:37;2.53;;;1.30;;
57565;SDS011;63999;43.882;-0.310;2023-08-01T12:46:03;3.13;;;1.70;;
57565;SDS011;63999;43.882;-0.310;2023-08-01T12:48:29;5.18;;;1.90;;
57565;SDS011;63999;43.882;-0.310;2023-08-01T12:50:55;3.15;;;1.88;;
57565;SDS011;63999;43.882;-0.310;2023-08-01T12:53:21;3.13;;;1.48;;
57565;SDS011;63999;43.882;-0.310;2023-08-01T12:55:48;2.55;;;1.40;;
57565;SDS011;63999;43.882;-0.310;2023-08-01T12:58:15;3.95;;;1.88;;
57565;SDS011;63999;43.882;-0.310;2023-08-01T13:00:41;4.85;;;1.70;;
57565;SDS011;63999;43.882;-0.310;2023-08-01T13:03:08;3.25;;;1.98;;
57565;SDS011;63999;43.882;-0.310;2023-08-01T13:05:34;4.07;;;1.70;;
57565;SDS011;63999;43.882;-0.310;2023-08-01T13:08:01;3.83;;;1.60;;
57565;SDS011;63999;43.882;-0.310;2023-08-01T13:10:37;3.45;;;1.30;;
57565;SDS011;63999;43.882;-0.310;2023-08-01T13:13:03;3.50;;;1.95;;
57565;SDS011;63999;43.882;-0.310;2023-08-01T13:15:30;3.72;;;1.73;;
57565;SDS011;63999;43.882;-0.310;2023-08-01T13:17:56;4.78;;;1.77;;
57565;SDS011;63999;43.882;-0.310;2023-08-01T13:20:22;5.53;;;2.00;;
57565;SDS011;63999;43.882;-0.310;2023-08-01T13:22:51;4.25;;;2.20;;
57565;SDS011;63999;43.882;-0.310;2023-08-01T13:25:17;5.63;;;1.70;;
57565;SDS011;63999;43.882;-0.310;2023-08-01T13:27:44;4.68;;;1.80;;
57565;SDS011;63999;43.882;-0.310;2023-08-01T13:30:10;4.63;;;2.10;;
57565;SDS011;63999;43.882;-0.310;2023-08-01T13:32:39;4.22;;;1.90;;
57565;SDS011;63999;43.882;-0.310;2023-08-01T13:35:05;3.30;;;2.00;;
57565;SDS011;63999;43.882;-0.310;2023-08-01T13:37:31;3.30;;;2.10;;
57565;SDS011;63999;43.882;-0.310;2023-08-01T13:39:57;6.25;;;2.40;;
57565;SDS011;63999;43.882;-0.310;2023-08-01T13:42:23;5.70;;;2.22;;
57565;SDS011;63999;43.882;-0.310;2023-08-01T13:44:49;4.65;;;2.30;;
57565;SDS011;63999;43.882;-0.310;2023-08-01T13:47:15;4.43;;;2.10;;
57565;SDS011;63999;43.882;-0.310;2023-08-01T13:49:41;3.60;;;1.70;;
57565;SDS011;63999;43.882;-0.310;2023-08-01T13:52:06;4.22;;;2.40;;
57565;SDS011;63999;43.882;-0.310;2023-08-01T13:54:32;4.50;;;2.25;;
57565;SDS011;63999;43.882;-0.310;2023-08-01T13:56:58;3.58;;;1.90;;
57565;SDS011;63999;43.882;-0.310;2023-08-01T13:59:24;5.22;;;2.03;;
57565;SDS011;63999;43.882;-0.310;2023-08-01T14:01:50;4.80;;;2.30;;
57565;SDS011;63999;43.882;-0.310;2023-08-01T14:04:17;6.15;;;2.20;;
57565;SDS011;63999;43.882;-0.310;2023-08-01T14:06:42;4.07;;;2.17;;
57565;SDS011;63999;43.882;-0.310;2023-08-01T14:09:08;4.10;;;2.17;;
57565;SDS011;63999;43.882;-0.310;2023-08-01T14:11:35;5.22;;;2.33;;
57565;SDS011;63999;43.882;-0.310;2023-08-01T14:14:01;7.68;;;2.28;;
57565;SDS011;63999;43.882;-0.310;2023-08-01T14:16:27;3.30;;;1.80;;
57565;SDS011;63999;43.882;-0.310;2023-08-01T14:18:54;3.20;;;1.90;;
57565;SDS011;63999;43.882;-0.310;2023-08-01T14:21:20;2.90;;;1.85;;
57565;SDS011;63999;43.882;-0.310;2023-08-01T14:23:45;2.92;;;1.98;;
57565;SDS011;63999;43.882;-0.310;2023-08-01T14:26:11;3.92;;;1.98;;
57565;SDS011;63999;43.882;-0.310;2023-08-01T14:28:37;3.67;;;2.40;;
57565;SDS011;63999;43.882;-0.310;2023-08-01T14:31:03;6.05;;;2.45;;
57565;SDS011;63999;43.882;-0.310;2023-08-01T14:33:29;4.18;;;2.50;;
57565;SDS011;63999;43.882;-0.310;2023-08-01T14:35:55;6.20;;;2.20;;
57565;SDS011;63999;43.882;-0.310;2023-08-01T14:38:22;3.83;;;1.80;;
57565;SDS011;63999;43.882;-0.310;2023-08-01T14:40:48;7.18;;;2.35;;